Sacramento, California
Traffic Map
Current Weather Conditions
Sacramento, California
Clear
Clear
95°
Feels Like: 95°
Wind Chill: 95° Ceiling: Unl
Heat Index: 95° Visibility: 10mi
Dew Point: 54° Wind: 6mph
Humidity: 25% Direction: ° ()
Pressure: 29.79in Gusts: 0mph
Raw Report DataKSAC 302053Z VRB05KT 10SM CLR 35/12 A2979 RMK AO2 SLP087 T03500122 58020
Traffic Incident Summary
Active as of:
Severity:
Category:
InformationThere was an issue retrieving the traffic information for this location. Please try a different location or try again shortly.
Advertisements
Track Severe Weather on mobile